Time,TemperatureF,DewpointF,PressureIn,WindDirection,WindDirectionDegrees,WindSpeedMPH,WindSpeedGustMPH,Humidity,HourlyPrecipIn,Conditions,Clouds,dailyrainin,SoftwareType,DateUTC
2013-05-13 00:00:00,49.6,32.7,30.13,ESE,113,0.0,17.0,52,0.00,,,0.00,Wunderground v.1.13,2013-05-13 04:00:00,
2013-05-13 00:05:00,49.5,32.6,30.13,ENE,71,0.0,17.0,52,0.00,,,0.00,Wunderground v.1.13,2013-05-13 04:05:00,
2013-05-13 00:10:00,49.4,32.5,30.13,ESE,113,0.0,17.0,52,0.00,,,0.00,Wunderground v.1.13,2013-05-13 04:10:00,
2013-05-13 00:15:00,49.4,33.0,30.12,ESE,113,1.0,17.0,53,0.00,,,0.00,Wunderground v.1.13,2013-05-13 04:15:00,
2013-05-13 00:20:00,49.2,32.8,30.12,East,99,1.0,17.0,53,0.00,,,0.00,Wunderground v.1.13,2013-05-13 04:20:00,
2013-05-13 00:25:00,49.2,33.3,30.12,East,99,1.0,17.0,54,0.00,,,0.00,Wunderground v.1.13,2013-05-13 04:25:00,
2013-05-13 00:30:00,49.1,33.2,30.12,East,86,1.0,1.0,54,0.00,,,0.00,Wunderground v.1.13,2013-05-13 04:30:00,
2013-05-13 00:35:00,48.9,33.0,30.12,East,93,1.0,1.0,54,0.00,,,0.00,Wunderground v.1.13,2013-05-13 04:35:00,
2013-05-13 00:40:00,48.9,33.0,30.12,East,93,1.0,1.0,54,0.00,,,0.00,Wunderground v.1.13,2013-05-13 04:40:00,
2013-05-13 00:45:00,48.9,33.4,30.12,East,93,0.0,17.0,55,0.00,,,0.00,Wunderground v.1.13,2013-05-13 04:45:00,
2013-05-13 00:50:00,48.8,33.3,30.12,East,93,0.0,17.0,55,0.00,,,0.00,Wunderground v.1.13,2013-05-13 04:50:00,
2013-05-13 01:00:00,48.8,32.4,30.12,East,93,1.0,1.0,53,0.00,,,0.00,Wunderground v.1.13,2013-05-13 05:00:00,
2013-05-13 01:05:00,48.9,32.5,30.12,East,93,1.0,1.0,53,0.00,,,0.00,Wunderground v.1.13,2013-05-13 05:05:00,
2013-05-13 01:10:00,48.9,33.0,30.12,East,93,0.0,17.0,54,0.00,,,0.00,Wunderground v.1.13,2013-05-13 05:10:00,
2013-05-13 01:15:00,48.9,32.5,30.11,East,93,0.0,17.0,53,0.00,,,0.00,Wunderground v.1.13,2013-05-13 05:15:00,
2013-05-13 01:20:00,48.9,32.5,30.11,East,93,0.0,17.0,53,0.00,,,0.00,Wunderground v.1.13,2013-05-13 05:20:00,
2013-05-13 01:25:00,48.9,32.5,30.11,East,93,0.0,17.0,53,0.00,,,0.00,Wunderground v.1.13,2013-05-13 05:25:00,
2013-05-13 01:30:00,49.1,32.7,30.11,East,93,0.0,17.0,53,0.00,,,0.00,Wunderground v.1.13,2013-05-13 05:30:00,
2013-05-13 01:35:00,49.2,32.3,30.11,East,93,0.0,17.0,52,0.00,,,0.00,Wunderground v.1.13,2013-05-13 05:35:00,
2013-05-13 01:40:00,49.2,32.3,30.11,East,93,0.0,17.0,52,0.00,,,0.00,Wunderground v.1.13,2013-05-13 05:40:00,
2013-05-13 01:45:00,49.2,32.8,30.11,East,93,0.0,17.0,53,0.00,,,0.00,Wunderground v.1.13,2013-05-13 05:45:00,
2013-05-13 01:50:00,49.2,32.3,30.11,East,93,0.0,17.0,52,0.00,,,0.00,Wunderground v.1.13,2013-05-13 05:50:00,
2013-05-13 02:00:00,49.4,32.5,30.11,East,93,0.0,17.0,52,0.00,,,0.00,Wunderground v.1.13,2013-05-13 06:00:00,
2013-05-13 02:05:00,49.4,32.5,30.11,East,93,0.0,17.0,52,0.00,,,0.00,Wunderground v.1.13,2013-05-13 06:05:00,
2013-05-13 02:10:00,49.4,32.0,30.11,SE,126,0.0,17.0,51,0.00,,,0.00,Wunderground v.1.13,2013-05-13 06:10:00,
2013-05-13 02:15:00,49.5,32.1,30.11,SE,126,0.0,17.0,51,0.00,,,0.00,Wunderground v.1.13,2013-05-13 06:15:00,
2013-05-13 02:20:00,49.6,31.2,30.11,SE,137,1.0,1.0,49,0.00,,,0.00,Wunderground v.1.13,2013-05-13 06:20:00,
2013-05-13 02:25:00,49.8,31.4,30.11,SE,141,1.0,1.0,49,0.00,,,0.00,Wunderground v.1.13,2013-05-13 06:25:00,
2013-05-13 02:35:00,50.1,31.2,30.10,SE,130,1.0,17.0,48,0.00,,,0.00,Wunderground v.1.13,2013-05-13 06:35:00,
2013-05-13 02:40:00,50.1,30.1,30.10,SE,131,1.0,17.0,46,0.00,,,0.00,Wunderground v.1.13,2013-05-13 06:40:00,
2013-05-13 02:45:00,50.2,30.7,30.10,SE,141,1.0,17.0,47,0.00,,,0.00,Wunderground v.1.13,2013-05-13 06:45:00,
2013-05-13 02:50:00,50.2,31.2,30.10,SE,138,1.0,1.0,48,0.00,,,0.00,Wunderground v.1.13,2013-05-13 06:50:00,
2013-05-13 02:55:00,50.2,31.2,30.10,SE,124,2.0,2.0,48,0.00,,,0.00,Wunderground v.1.13,2013-05-13 06:55:00,
2013-05-13 03:05:00,50.1,33.1,30.10,SSW,198,1.0,1.0,52,0.00,,,0.00,Wunderground v.1.13,2013-05-13 07:05:00,
2013-05-13 03:10:00,49.8,32.9,30.10,NNW,332,0.0,17.0,52,0.00,,,0.00,Wunderground v.1.13,2013-05-13 07:10:00,
2013-05-13 03:15:00,49.6,31.2,30.11,SW,234,1.0,17.0,49,0.00,,,0.00,Wunderground v.1.13,2013-05-13 07:15:00,
2013-05-13 03:20:00,49.4,32.0,30.11,South,191,2.0,2.0,51,0.00,,,0.00,Wunderground v.1.13,2013-05-13 07:20:00,
2013-05-13 03:25:00,49.2,32.3,30.11,WSW,247,1.0,1.0,52,0.00,,,0.00,Wunderground v.1.13,2013-05-13 07:25:00,
2013-05-13 03:30:00,49.1,32.7,30.11,SSW,192,0.0,17.0,53,0.00,,,0.00,Wunderground v.1.13,2013-05-13 07:30:00,
2013-05-13 03:35:00,48.8,32.4,30.11,South,185,0.0,17.0,53,0.00,,,0.00,Wunderground v.1.13,2013-05-13 07:35:00,
2013-05-13 03:40:00,48.5,32.1,30.11,South,185,0.0,17.0,53,0.00,,,0.00,Wunderground v.1.13,2013-05-13 07:40:00,
2013-05-13 03:45:00,48.3,31.9,30.11,South,185,0.0,17.0,53,0.00,,,0.00,Wunderground v.1.13,2013-05-13 07:45:00,
2013-05-13 03:50:00,48.2,31.9,30.11,South,185,0.0,17.0,53,0.00,,,0.00,Wunderground v.1.13,2013-05-13 07:50:00,
2013-05-13 03:55:00,48.2,33.2,30.11,South,185,0.0,17.0,56,0.00,,,0.00,Wunderground v.1.13,2013-05-13 07:55:00,
2013-05-13 04:00:00,48.0,33.5,30.11,South,185,0.0,17.0,57,0.00,,,0.00,Wunderground v.1.13,2013-05-13 08:00:00,
2013-05-13 04:10:00,47.9,33.8,30.11,South,185,0.0,17.0,58,0.00,,,0.00,Wunderground v.1.13,2013-05-13 08:10:00,
2013-05-13 04:15:00,47.6,33.5,30.11,SSW,196,0.0,17.0,58,0.00,,,0.00,Wunderground v.1.13,2013-05-13 08:15:00,
2013-05-13 04:20:00,47.4,33.4,30.11,SSW,196,0.0,17.0,58,0.00,,,0.00,Wunderground v.1.13,2013-05-13 08:20:00,
2013-05-13 04:25:00,47.3,33.7,30.11,SSW,196,0.0,17.0,59,0.00,,,0.00,Wunderground v.1.13,2013-05-13 08:25:00,
2013-05-13 04:30:00,47.1,33.5,30.12,South,191,0.0,17.0,59,0.00,,,0.00,Wunderground v.1.13,2013-05-13 08:30:00,
2013-05-13 04:40:00,46.7,32.7,30.12,SSW,193,0.0,17.0,58,0.00,,,0.00,Wunderground v.1.13,2013-05-13 08:40:00,
2013-05-13 04:45:00,46.7,32.7,30.12,SSW,193,0.0,17.0,58,0.00,,,0.00,Wunderground v.1.13,2013-05-13 08:45:00,
2013-05-13 04:50:00,46.7,33.1,30.12,SSW,193,0.0,17.0,59,0.00,,,0.00,Wunderground v.1.13,2013-05-13 08:50:00,
2013-05-13 04:55:00,46.7,33.1,30.12,SSW,193,0.0,17.0,59,0.00,,,0.00,Wunderground v.1.13,2013-05-13 08:55:00,
2013-05-13 05:00:00,46.7,32.7,30.12,SSW,193,0.0,17.0,58,0.00,,,0.00,Wunderground v.1.13,2013-05-13 09:00:00,
2013-05-13 05:05:00,46.5,32.9,30.12,SSW,193,0.0,17.0,59,0.00,,,0.00,Wunderground v.1.13,2013-05-13 09:05:00,
2013-05-13 05:10:00,46.5,33.4,30.12,SSW,193,0.0,17.0,60,0.00,,,0.00,Wunderground v.1.13,2013-05-13 09:10:00,
2013-05-13 05:20:00,46.4,34.1,30.12,SSW,193,0.0,17.0,62,0.00,,,0.00,Wunderground v.1.13,2013-05-13 09:20:00,
2013-05-13 05:25:00,46.1,33.8,30.12,SSW,193,0.0,17.0,62,0.00,,,0.00,Wunderground v.1.13,2013-05-13 09:25:00,
2013-05-13 05:30:00,45.8,34.3,30.12,SE,144,0.0,17.0,64,0.00,,,0.00,Wunderground v.1.13,2013-05-13 09:30:00,
2013-05-13 05:35:00,45.4,34.7,30.12,SE,144,0.0,17.0,66,0.00,,,0.00,Wunderground v.1.13,2013-05-13 09:35:00,
2013-05-13 05:40:00,45.1,34.8,30.12,SE,143,0.0,17.0,67,0.00,,,0.00,Wunderground v.1.13,2013-05-13 09:40:00,
2013-05-13 05:45:00,44.6,35.1,30.12,SE,127,1.0,17.0,69,0.00,,,0.00,Wunderground v.1.13,2013-05-13 09:45:00,
2013-05-13 05:50:00,44.1,35.3,30.12,East,85,1.0,1.0,71,0.00,,,0.00,Wunderground v.1.13,2013-05-13 09:50:00,
2013-05-13 05:55:00,43.8,35.4,30.12,East,85,1.0,1.0,72,0.00,,,0.00,Wunderground v.1.13,2013-05-13 09:55:00,
2013-05-13 06:00:00,43.3,35.2,30.12,ENE,73,1.0,17.0,73,0.00,,,0.00,Wunderground v.1.13,2013-05-13 10:00:00,
2013-05-13 06:05:00,42.9,35.2,30.12,East,82,1.0,1.0,74,0.00,,,0.00,Wunderground v.1.13,2013-05-13 10:05:00,
2013-05-13 06:15:00,42.6,35.2,30.12,East,83,0.0,17.0,75,0.00,,,0.00,Wunderground v.1.13,2013-05-13 10:15:00,
2013-05-13 06:20:00,42.3,34.9,30.12,ENE,75,1.0,1.0,75,0.00,,,0.00,Wunderground v.1.13,2013-05-13 10:20:00,
2013-05-13 06:25:00,42.2,35.2,30.12,East,79,1.0,1.0,76,0.00,,,0.00,Wunderground v.1.13,2013-05-13 10:25:00,
2013-05-13 06:30:00,42.1,35.4,30.13,ESE,104,1.0,17.0,77,0.00,,,0.00,Wunderground v.1.13,2013-05-13 10:30:00,
2013-05-13 06:35:00,41.9,35.2,30.13,East,100,1.0,1.0,77,0.00,,,0.00,Wunderground v.1.13,2013-05-13 10:35:00,
2013-05-13 06:40:00,41.9,35.5,30.13,East,95,1.0,1.0,78,0.00,,,0.00,Wunderground v.1.13,2013-05-13 10:40:00,
2013-05-13 06:50:00,41.6,35.6,30.14,East,93,1.0,1.0,79,0.00,,,0.00,Wunderground v.1.13,2013-05-13 10:50:00,
2013-05-13 06:55:00,41.6,35.6,30.14,East,93,0.0,17.0,79,0.00,,,0.00,Wunderground v.1.13,2013-05-13 10:55:00,
2013-05-13 07:00:00,41.5,35.8,30.14,East,93,0.0,17.0,80,0.00,,,0.00,Wunderground v.1.13,2013-05-13 11:00:00,
2013-05-13 07:05:00,41.5,35.8,30.14,East,93,1.0,17.0,80,0.00,,,0.00,Wunderground v.1.13,2013-05-13 11:05:00,
2013-05-13 07:10:00,41.5,35.8,30.14,East,93,1.0,1.0,80,0.00,,,0.00,Wunderground v.1.13,2013-05-13 11:10:00,
2013-05-13 07:15:00,41.5,35.8,30.14,East,93,1.0,17.0,80,0.00,,,0.00,Wunderground v.1.13,2013-05-13 11:15:00,
2013-05-13 07:20:00,41.3,35.9,30.14,East,97,2.0,2.0,81,0.00,,,0.00,Wunderground v.1.13,2013-05-13 11:20:00,
2013-05-13 07:25:00,41.5,36.1,30.14,East,96,1.0,17.0,81,0.00,,,0.00,Wunderground v.1.13,2013-05-13 11:25:00,
2013-05-13 07:30:00,41.6,36.2,30.15,East,96,1.0,1.0,81,0.00,,,0.00,Wunderground v.1.13,2013-05-13 11:30:00,
2013-05-13 07:35:00,41.6,35.9,30.15,East,86,2.0,2.0,80,0.00,,,0.00,Wunderground v.1.13,2013-05-13 11:35:00,
2013-05-13 07:40:00,41.9,36.2,30.15,East,86,1.0,1.0,80,0.00,,,0.00,Wunderground v.1.13,2013-05-13 11:40:00,
2013-05-13 07:50:00,42.5,36.8,30.15,East,86,0.0,17.0,80,0.00,,,0.00,Wunderground v.1.13,2013-05-13 11:50:00,
2013-05-13 07:55:00,42.9,36.8,30.15,East,86,0.0,17.0,79,0.00,,,0.00,Wunderground v.1.13,2013-05-13 11:55:00,
2013-05-13 08:00:00,43.3,36.6,30.15,East,86,0.0,17.0,77,0.00,,,0.00,Wunderground v.1.13,2013-05-13 12:00:00,
2013-05-13 08:05:00,43.8,36.4,30.15,East,86,0.0,17.0,75,0.00,,,0.00,Wunderground v.1.13,2013-05-13 12:05:00,
2013-05-13 08:10:00,44.2,36.1,30.15,East,86,0.0,17.0,73,0.00,,,0.00,Wunderground v.1.13,2013-05-13 12:10:00,
2013-05-13 08:15:00,44.8,36.3,30.15,East,86,0.0,17.0,72,0.00,,,0.00,Wunderground v.1.13,2013-05-13 12:15:00,
2013-05-13 08:25:00,45.8,36.2,30.15,East,86,0.0,17.0,69,0.00,,,0.00,Wunderground v.1.13,2013-05-13 12:25:00,
2013-05-13 08:30:00,46.2,36.2,30.15,East,86,0.0,17.0,68,0.00,,,0.00,Wunderground v.1.13,2013-05-13 12:30:00,
2013-05-13 08:35:00,46.8,36.4,30.15,East,86,0.0,17.0,67,0.00,,,0.00,Wunderground v.1.13,2013-05-13 12:35:00,
2013-05-13 08:40:00,47.1,36.3,30.15,East,86,0.0,17.0,66,0.00,,,0.00,Wunderground v.1.13,2013-05-13 12:40:00,
2013-05-13 08:45:00,47.6,36.4,30.16,East,86,0.0,17.0,65,0.00,,,0.00,Wunderground v.1.13,2013-05-13 12:45:00,
2013-05-13 08:55:00,48.8,36.4,30.16,East,86,0.0,17.0,62,0.00,,,0.00,Wunderground v.1.13,2013-05-13 12:55:00,
2013-05-13 09:00:00,49.6,36.3,30.16,East,86,0.0,17.0,60,0.00,,,0.00,Wunderground v.1.13,2013-05-13 13:00:00,
2013-05-13 09:05:00,50.5,35.8,30.16,ESE,121,0.0,17.0,57,0.00,,,0.00,Wunderground v.1.13,2013-05-13 13:05:00,
2013-05-13 09:10:00,51.1,35.0,30.16,SE,144,0.0,17.0,54,0.00,,,0.00,Wunderground v.1.13,2013-05-13 13:10:00,
2013-05-13 09:15:00,51.3,34.3,30.17,SSE,155,0.0,17.0,52,0.00,,,0.00,Wunderground v.1.13,2013-05-13 13:15:00,
2013-05-13 09:20:00,51.6,33.6,30.17,SE,134,0.0,17.0,50,0.00,,,0.00,Wunderground v.1.13,2013-05-13 13:20:00,
2013-05-13 09:25:00,51.7,33.1,30.17,SE,140,1.0,17.0,49,0.00,,,0.00,Wunderground v.1.13,2013-05-13 13:25:00,
2013-05-13 09:30:00,51.7,33.1,30.18,SSE,147,2.0,17.0,49,0.00,,,0.00,Wunderground v.1.13,2013-05-13 13:30:00,
2013-05-13 09:35:00,51.9,33.8,30.18,SE,143,1.0,1.0,50,0.00,,,0.00,Wunderground v.1.13,2013-05-13 13:35:00,
2013-05-13 09:40:00,52.2,33.6,30.18,SE,136,1.0,17.0,49,0.00,,,0.00,Wunderground v.1.13,2013-05-13 13:40:00,
2013-05-13 09:50:00,52.8,33.6,30.18,SSE,148,1.0,17.0,48,0.00,,,0.00,Wunderground v.1.13,2013-05-13 13:50:00,
2013-05-13 09:55:00,53.3,34.6,30.18,SSE,147,0.0,17.0,49,0.00,,,0.00,Wunderground v.1.13,2013-05-13 13:55:00,
2013-05-13 10:00:00,54.1,33.2,30.18,SE,134,0.0,17.0,45,0.00,,,0.00,Wunderground v.1.13,2013-05-13 14:00:00,
2013-05-13 10:05:00,54.2,32.7,30.18,SE,143,0.0,17.0,44,0.00,,,0.00,Wunderground v.1.13,2013-05-13 14:05:00,
2013-05-13 10:10:00,54.5,31.9,30.18,SE,130,0.0,17.0,42,0.00,,,0.00,Wunderground v.1.13,2013-05-13 14:10:00,
2013-05-13 10:15:00,54.7,32.0,30.18,SE,137,1.0,1.0,42,0.00,,,0.00,Wunderground v.1.13,2013-05-13 14:15:00,
2013-05-13 10:20:00,54.8,30.3,30.18,SE,137,1.0,17.0,39,0.00,,,0.00,Wunderground v.1.13,2013-05-13 14:20:00,
2013-05-13 10:30:00,56.0,32.0,30.17,SE,130,1.0,17.0,40,0.00,,,0.00,Wunderground v.1.13,2013-05-13 14:30:00,
2013-05-13 10:35:00,56.7,29.3,30.17,SE,134,1.0,17.0,35,0.00,,,0.00,Wunderground v.1.13,2013-05-13 14:35:00,
2013-05-13 10:40:00,57.3,29.1,30.17,SSW,199,1.0,17.0,34,0.00,,,0.00,Wunderground v.1.13,2013-05-13 14:40:00,
2013-05-13 10:45:00,58.4,27.9,30.17,SSE,165,1.0,17.0,31,0.00,,,0.00,Wunderground v.1.13,2013-05-13 14:45:00,
2013-05-13 10:50:00,59.0,26.8,30.17,SE,145,1.0,1.0,29,0.00,,,0.00,Wunderground v.1.13,2013-05-13 14:50:00,
2013-05-13 10:55:00,59.3,27.8,30.17,SW,219,1.0,17.0,30,0.00,,,0.00,Wunderground v.1.13,2013-05-13 14:55:00,
2013-05-13 11:05:00,60.2,25.1,30.18,SE,141,2.0,2.0,26,0.00,,,0.00,Wunderground v.1.13,2013-05-13 15:05:00,
2013-05-13 11:10:00,60.5,25.4,30.18,South,181,1.0,1.0,26,0.00,,,0.00,Wunderground v.1.13,2013-05-13 15:10:00,
2013-05-13 11:15:00,60.9,28.4,30.18,South,174,1.0,17.0,29,0.00,,,0.00,Wunderground v.1.13,2013-05-13 15:15:00,
2013-05-13 11:20:00,60.9,26.7,30.18,SSW,213,1.0,17.0,27,0.00,,,0.00,Wunderground v.1.13,2013-05-13 15:20:00,
2013-05-13 11:25:00,61.5,26.3,30.18,South,172,2.0,2.0,26,0.00,,,0.00,Wunderground v.1.13,2013-05-13 15:25:00,
2013-05-13 11:35:00,61.0,23.9,30.18,SE,134,2.0,17.0,24,0.00,,,0.00,Wunderground v.1.13,2013-05-13 15:35:00,
2013-05-13 11:40:00,60.9,27.5,30.18,SE,140,3.0,17.0,28,0.00,,,0.00,Wunderground v.1.13,2013-05-13 15:40:00,
2013-05-13 11:45:00,60.5,26.3,30.18,West,274,2.0,17.0,27,0.00,,,0.00,Wunderground v.1.13,2013-05-13 15:45:00,
2013-05-13 11:50:00,60.4,27.1,30.18,SE,137,2.0,2.0,28,0.00,,,0.00,Wunderground v.1.13,2013-05-13 15:50:00,
2013-05-13 11:55:00,60.5,28.9,30.18,WSW,253,1.0,17.0,30,0.00,,,0.00,Wunderground v.1.13,2013-05-13 15:55:00,
2013-05-13 12:00:00,61.6,27.3,30.18,SE,140,2.0,17.0,27,0.00,,,0.00,Wunderground v.1.13,2013-05-13 16:00:00,
2013-05-13 12:05:00,62.0,24.8,30.18,SSE,147,1.0,1.0,24,0.00,,,0.00,Wunderground v.1.13,2013-05-13 16:05:00,
2013-05-13 12:10:00,62.7,25.3,30.18,SSW,209,1.0,1.0,24,0.00,,,0.00,Wunderground v.1.13,2013-05-13 16:10:00,
2013-05-13 12:15:00,63.2,26.8,30.18,East,96,1.0,17.0,25,0.00,,,0.00,Wunderground v.1.13,2013-05-13 16:15:00,
2013-05-13 12:20:00,63.2,24.7,30.18,South,181,2.0,17.0,23,0.00,,,0.00,Wunderground v.1.13,2013-05-13 16:20:00,
2013-05-13 12:25:00,63.2,27.7,30.18,SW,229,2.0,2.0,26,0.00,,,0.00,Wunderground v.1.13,2013-05-13 16:25:00,
2013-05-13 12:30:00,64.2,27.6,30.18,SSE,154,1.0,17.0,25,0.00,,,0.00,Wunderground v.1.13,2013-05-13 16:30:00,
2013-05-13 12:40:00,64.5,24.8,30.18,SE,143,1.0,1.0,22,0.00,,,0.00,Wunderground v.1.13,2013-05-13 16:40:00,
2013-05-13 12:45:00,63.9,25.3,30.18,SE,127,1.0,17.0,23,0.00,,,0.00,Wunderground v.1.13,2013-05-13 16:45:00,
2013-05-13 12:50:00,62.6,25.3,30.18,ESE,123,3.0,17.0,24,0.00,,,0.00,Wunderground v.1.13,2013-05-13 16:50:00,
2013-05-13 12:55:00,62.0,27.6,30.18,SE,141,3.0,3.0,27,0.00,,,0.00,Wunderground v.1.13,2013-05-13 16:55:00,
2013-05-13 13:00:00,61.6,24.4,30.17,SE,144,3.0,17.0,24,0.00,,,0.00,Wunderground v.1.13,2013-05-13 17:00:00,
2013-05-13 13:10:00,62.9,26.5,30.17,ESE,121,2.0,17.0,25,0.00,,,0.00,Wunderground v.1.13,2013-05-13 17:10:00,
2013-05-13 13:15:00,63.4,27.9,30.17,SE,134,3.0,17.0,26,0.00,,,0.00,Wunderground v.1.13,2013-05-13 17:15:00,
2013-05-13 13:20:00,63.7,28.1,30.17,SE,130,3.0,3.0,26,0.00,,,0.00,Wunderground v.1.13,2013-05-13 17:20:00,
2013-05-13 13:25:00,64.3,26.7,30.17,SSW,198,2.0,2.0,24,0.00,,,0.00,Wunderground v.1.13,2013-05-13 17:25:00,
2013-05-13 13:30:00,64.3,24.6,30.16,SE,137,3.0,3.0,22,0.00,,,0.00,Wunderground v.1.13,2013-05-13 17:30:00,
2013-05-13 13:35:00,64.3,26.7,30.16,SSE,161,3.0,3.0,24,0.00,,,0.00,Wunderground v.1.13,2013-05-13 17:35:00,
2013-05-13 13:40:00,64.8,26.1,30.16,ENE,62,2.0,17.0,23,0.00,,,0.00,Wunderground v.1.13,2013-05-13 17:40:00,
2013-05-13 13:45:00,64.8,25.0,30.16,ENE,62,3.0,3.0,22,0.00,,,0.00,Wunderground v.1.13,2013-05-13 17:45:00,
2013-05-13 13:50:00,65.3,26.5,30.16,SSE,148,3.0,17.0,23,0.00,,,0.00,Wunderground v.1.13,2013-05-13 17:50:00,
2013-05-13 13:55:00,65.6,26.8,30.16,South,191,2.0,2.0,23,0.00,,,0.00,Wunderground v.1.13,2013-05-13 17:55:00,
2013-05-13 14:00:00,64.7,24.9,30.16,East,95,3.0,17.0,22,0.00,,,0.00,Wunderground v.1.13,2013-05-13 18:00:00,
2013-05-13 14:05:00,63.9,26.4,30.16,SSE,154,3.0,3.0,24,0.00,,,0.00,Wunderground v.1.13,2013-05-13 18:05:00,
2013-05-13 14:15:00,64.2,25.6,30.16,South,184,2.0,17.0,23,0.00,,,0.00,Wunderground v.1.13,2013-05-13 18:15:00,
2013-05-13 14:20:00,64.8,27.1,30.16,South,181,2.0,17.0,24,0.00,,,0.00,Wunderground v.1.13,2013-05-13 18:20:00,
2013-05-13 14:25:00,65.0,29.2,30.16,SE,136,2.0,17.0,26,0.00,,,0.00,Wunderground v.1.13,2013-05-13 18:25:00,
2013-05-13 14:30:00,64.5,25.8,30.16,SE,128,3.0,17.0,23,0.00,,,0.00,Wunderground v.1.13,2013-05-13 18:30:00,
2013-05-13 14:35:00,64.0,25.4,30.16,SSE,154,3.0,3.0,23,0.00,,,0.00,Wunderground v.1.13,2013-05-13 18:35:00,
2013-05-13 14:45:00,64.0,25.4,30.16,South,182,2.0,2.0,23,0.00,,,0.00,Wunderground v.1.13,2013-05-13 18:45:00,
2013-05-13 14:50:00,64.2,25.6,30.16,SSW,210,2.0,17.0,23,0.00,,,0.00,Wunderground v.1.13,2013-05-13 18:50:00,
2013-05-13 14:55:00,64.7,26.0,30.16,SSE,165,1.0,17.0,23,0.00,,,0.00,Wunderground v.1.13,2013-05-13 18:55:00,
2013-05-13 15:00:00,65.0,27.3,30.16,SSE,150,2.0,2.0,24,0.00,,,0.00,Wunderground v.1.13,2013-05-13 19:00:00,
2013-05-13 15:05:00,65.2,25.4,30.16,SSW,212,2.0,17.0,22,0.00,,,0.00,Wunderground v.1.13,2013-05-13 19:05:00,
2013-05-13 15:10:00,65.2,26.4,30.16,SSE,150,3.0,3.0,23,0.00,,,0.00,Wunderground v.1.13,2013-05-13 19:10:00,
2013-05-13 15:20:00,65.6,25.7,30.16,SSW,213,2.0,17.0,22,0.00,,,0.00,Wunderground v.1.13,2013-05-13 19:20:00,
2013-05-13 15:25:00,66.4,28.5,30.16,South,191,2.0,2.0,24,0.00,,,0.00,Wunderground v.1.13,2013-05-13 19:25:00,
2013-05-13 15:30:00,67.1,25.8,30.15,SSE,167,2.0,17.0,21,0.00,,,0.00,Wunderground v.1.13,2013-05-13 19:30:00,
2013-05-13 15:35:00,67.6,27.4,30.15,SSE,158,2.0,2.0,22,0.00,,,0.00,Wunderground v.1.13,2013-05-13 19:35:00,
2013-05-13 15:40:00,67.3,28.2,30.15,SE,143,2.0,2.0,23,0.00,,,0.00,Wunderground v.1.13,2013-05-13 19:40:00,
2013-05-13 15:50:00,66.8,24.4,30.15,SSE,147,2.0,2.0,20,0.00,,,0.00,Wunderground v.1.13,2013-05-13 19:50:00,
2013-05-13 15:55:00,66.4,26.4,30.15,SSW,195,3.0,3.0,22,0.00,,,0.00,Wunderground v.1.13,2013-05-13 19:55:00,
2013-05-13 16:00:00,66.8,24.4,30.14,SSE,157,2.0,2.0,20,0.00,,,0.00,Wunderground v.1.13,2013-05-13 20:00:00,
2013-05-13 16:05:00,66.4,26.4,30.14,South,169,2.0,2.0,22,0.00,,,0.00,Wunderground v.1.13,2013-05-13 20:05:00,
2013-05-13 16:10:00,67.1,29.1,30.14,SSE,158,2.0,2.0,24,0.00,,,0.00,Wunderground v.1.13,2013-05-13 20:10:00,
2013-05-13 16:20:00,67.3,28.2,30.14,WSW,253,2.0,17.0,23,0.00,,,0.00,Wunderground v.1.13,2013-05-13 20:20:00,
2013-05-13 16:25:00,66.9,25.7,30.14,South,171,3.0,3.0,21,0.00,,,0.00,Wunderground v.1.13,2013-05-13 20:25:00,
2013-05-13 16:30:00,66.6,24.2,30.14,SSW,206,4.0,4.0,20,0.00,,,0.00,Wunderground v.1.13,2013-05-13 20:30:00,
2013-05-13 16:35:00,66.1,26.1,30.14,SSE,164,2.0,17.0,22,0.00,,,0.00,Wunderground v.1.13,2013-05-13 20:35:00,
2013-05-13 16:40:00,65.8,26.9,30.14,SSE,161,2.0,2.0,23,0.00,,,0.00,Wunderground v.1.13,2013-05-13 20:40:00,
2013-05-13 16:45:00,66.3,26.3,30.13,SE,133,2.0,2.0,22,0.00,,,0.00,Wunderground v.1.13,2013-05-13 20:45:00,
2013-05-13 16:55:00,65.8,24.7,30.13,SSE,150,3.0,3.0,21,0.00,,,0.00,Wunderground v.1.13,2013-05-13 20:55:00,
2013-05-13 17:00:00,66.3,25.2,30.13,NW,309,4.0,4.0,21,0.00,,,0.00,Wunderground v.1.13,2013-05-13 21:00:00,
2013-05-13 17:05:00,66.4,27.4,30.13,SSW,203,4.0,4.0,23,0.00,,,0.00,Wunderground v.1.13,2013-05-13 21:05:00,
2013-05-13 17:10:00,66.4,25.2,30.13,SSW,192,2.0,2.0,21,0.00,,,0.00,Wunderground v.1.13,2013-05-13 21:10:00,
2013-05-13 17:15:00,66.4,27.4,30.13,SSE,158,1.0,17.0,23,0.00,,,0.00,Wunderground v.1.13,2013-05-13 21:15:00,
2013-05-13 17:25:00,66.3,25.2,30.13,SE,141,1.0,17.0,21,0.00,,,0.00,Wunderground v.1.13,2013-05-13 21:25:00,
2013-05-13 17:30:00,65.6,26.8,30.13,SSW,205,2.0,2.0,23,0.00,,,0.00,Wunderground v.1.13,2013-05-13 21:30:00,
2013-05-13 17:35:00,66.0,24.9,30.13,South,184,3.0,3.0,21,0.00,,,0.00,Wunderground v.1.13,2013-05-13 21:35:00,
2013-05-13 17:40:00,66.6,25.4,30.13,SW,215,2.0,17.0,21,0.00,,,0.00,Wunderground v.1.13,2013-05-13 21:40:00,
2013-05-13 17:45:00,66.9,26.8,30.12,SSE,154,2.0,2.0,22,0.00,,,0.00,Wunderground v.1.13,2013-05-13 21:45:00,
2013-05-13 17:55:00,67.3,23.6,30.12,SSE,151,1.0,1.0,19,0.00,,,0.00,Wunderground v.1.13,2013-05-13 21:55:00,
2013-05-13 18:00:00,67.1,25.8,30.12,SE,136,2.0,2.0,21,0.00,,,0.00,Wunderground v.1.13,2013-05-13 22:00:00,
2013-05-13 18:05:00,66.3,24.0,30.12,WSW,243,4.0,17.0,20,0.00,,,0.00,Wunderground v.1.13,2013-05-13 22:05:00,
2013-05-13 18:10:00,66.1,25.0,30.12,South,189,4.0,4.0,21,0.00,,,0.00,Wunderground v.1.13,2013-05-13 22:10:00,
2013-05-13 18:15:00,66.3,29.4,30.12,SE,145,1.0,17.0,25,0.00,,,0.00,Wunderground v.1.13,2013-05-13 22:15:00,
2013-05-13 18:20:00,66.1,26.1,30.12,SSE,155,1.0,1.0,22,0.00,,,0.00,Wunderground v.1.13,2013-05-13 22:20:00,
2013-05-13 18:30:00,66.4,25.2,30.12,SSE,161,3.0,17.0,21,0.00,,,0.00,Wunderground v.1.13,2013-05-13 22:30:00,
2013-05-13 18:35:00,66.3,25.2,30.12,South,185,3.0,17.0,21,0.00,,,0.00,Wunderground v.1.13,2013-05-13 22:35:00,
2013-05-13 18:40:00,66.1,25.0,30.12,East,92,3.0,3.0,21,0.00,,,0.00,Wunderground v.1.13,2013-05-13 22:40:00,
2013-05-13 18:45:00,66.0,26.0,30.12,SSE,161,2.0,2.0,22,0.00,,,0.00,Wunderground v.1.13,2013-05-13 22:45:00,
2013-05-13 18:50:00,66.0,24.9,30.12,SE,140,1.0,1.0,21,0.00,,,0.00,Wunderground v.1.13,2013-05-13 22:50:00,
2013-05-13 18:55:00,66.1,25.0,30.12,SW,233,1.0,17.0,21,0.00,,,0.00,Wunderground v.1.13,2013-05-13 22:55:00,
2013-05-13 19:00:00,66.4,26.4,30.12,SSW,213,1.0,1.0,22,0.00,,,0.00,Wunderground v.1.13,2013-05-13 23:00:00,
2013-05-13 19:05:00,66.4,25.2,30.12,SSE,157,0.0,17.0,21,0.00,,,0.00,Wunderground v.1.13,2013-05-13 23:05:00,
2013-05-13 19:10:00,66.1,25.0,30.12,SE,144,0.0,17.0,21,0.00,,,0.00,Wunderground v.1.13,2013-05-13 23:10:00,
2013-05-13 19:15:00,66.0,27.1,30.11,SSW,208,1.0,1.0,23,0.00,,,0.00,Wunderground v.1.13,2013-05-13 23:15:00,
2013-05-13 19:20:00,65.8,23.6,30.11,SW,223,1.0,17.0,20,0.00,,,0.00,Wunderground v.1.13,2013-05-13 23:20:00,
2013-05-13 19:30:00,65.6,25.7,30.11,SE,137,1.0,17.0,22,0.00,,,0.00,Wunderground v.1.13,2013-05-13 23:30:00,
2013-05-13 19:35:00,65.5,26.7,30.11,SE,145,1.0,17.0,23,0.00,,,0.00,Wunderground v.1.13,2013-05-13 23:35:00,
2013-05-13 19:40:00,65.2,27.5,30.11,SSW,192,1.0,1.0,24,0.00,,,0.00,Wunderground v.1.13,2013-05-13 23:40:00,
2013-05-13 19:45:00,64.8,25.0,30.12,ESE,117,1.0,17.0,22,0.00,,,0.00,Wunderground v.1.13,2013-05-13 23:45:00,
2013-05-13 19:50:00,64.0,25.4,30.12,SSE,167,2.0,17.0,23,0.00,,,0.00,Wunderground v.1.13,2013-05-13 23:50:00,
2013-05-13 19:55:00,63.9,25.3,30.12,NNE,25,2.0,2.0,23,0.00,,,0.00,Wunderground v.1.13,2013-05-13 23:55:00,
2013-05-13 20:05:00,63.5,27.0,30.12,SSE,152,1.0,1.0,25,0.00,,,0.00,Wunderground v.1.13,2013-05-14 00:05:00,
2013-05-13 20:10:00,63.2,25.8,30.12,SSE,164,1.0,1.0,24,0.00,,,0.00,Wunderground v.1.13,2013-05-14 00:10:00,
2013-05-13 20:15:00,62.7,26.3,30.12,South,179,1.0,17.0,25,0.00,,,0.00,Wunderground v.1.13,2013-05-14 00:15:00,
2013-05-13 20:20:00,62.4,25.1,30.12,SW,215,1.0,1.0,24,0.00,,,0.00,Wunderground v.1.13,2013-05-14 00:20:00,
2013-05-13 20:25:00,62.1,24.8,30.12,SSE,158,0.0,17.0,24,0.00,,,0.00,Wunderground v.1.13,2013-05-14 00:25:00,
2013-05-13 20:30:00,61.8,25.6,30.13,West,264,1.0,1.0,25,0.00,,,0.00,Wunderground v.1.13,2013-05-14 00:30:00,
2013-05-13 20:35:00,61.5,25.3,30.13,SSW,199,1.0,17.0,25,0.00,,,0.00,Wunderground v.1.13,2013-05-14 00:35:00,
2013-05-13 20:40:00,61.0,24.9,30.13,WSW,244,2.0,2.0,25,0.00,,,0.00,Wunderground v.1.13,2013-05-14 00:40:00,
2013-05-13 20:45:00,60.7,24.6,30.13,SSW,196,2.0,2.0,25,0.00,,,0.00,Wunderground v.1.13,2013-05-14 00:45:00,
2013-05-13 20:50:00,60.5,25.4,30.13,SW,233,1.0,17.0,26,0.00,,,0.00,Wunderground v.1.13,2013-05-14 00:50:00,
2013-05-13 20:55:00,60.4,25.3,30.13,WSW,241,1.0,17.0,26,0.00,,,0.00,Wunderground v.1.13,2013-05-14 00:55:00,
2013-05-13 21:05:00,59.9,26.7,30.14,South,182,1.0,17.0,28,0.00,,,0.00,Wunderground v.1.13,2013-05-14 01:05:00,
2013-05-13 21:10:00,59.8,25.7,30.14,SSW,198,0.0,17.0,27,0.00,,,0.00,Wunderground v.1.13,2013-05-14 01:10:00,
2013-05-13 21:15:00,59.6,25.5,30.14,SW,227,1.0,17.0,27,0.00,,,0.00,Wunderground v.1.13,2013-05-14 01:15:00,
2013-05-13 21:20:00,59.5,26.3,30.14,SW,236,0.0,17.0,28,0.00,,,0.00,Wunderground v.1.13,2013-05-14 01:20:00,
2013-05-13 21:25:00,59.3,27.8,30.14,SW,236,0.0,17.0,30,0.00,,,0.00,Wunderground v.1.13,2013-05-14 01:25:00,
2013-05-13 21:30:00,59.2,26.9,30.14,SW,236,0.0,17.0,29,0.00,,,0.00,Wunderground v.1.13,2013-05-14 01:30:00,
2013-05-13 21:40:00,58.9,28.3,30.14,WSW,237,1.0,1.0,31,0.00,,,0.00,Wunderground v.1.13,2013-05-14 01:40:00,
2013-05-13 21:45:00,58.4,27.9,30.14,WSW,237,1.0,1.0,31,0.00,,,0.00,Wunderground v.1.13,2013-05-14 01:45:00,
2013-05-13 21:50:00,58.3,28.5,30.14,WSW,237,0.0,17.0,32,0.00,,,0.00,Wunderground v.1.13,2013-05-14 01:50:00,
2013-05-13 21:55:00,58.0,28.3,30.14,SW,224,0.0,17.0,32,0.00,,,0.00,Wunderground v.1.13,2013-05-14 01:55:00,
2013-05-13 22:00:00,57.6,30.1,30.15,SE,138,0.0,17.0,35,0.00,,,0.00,Wunderground v.1.13,2013-05-14 02:00:00,
2013-05-13 22:05:00,57.2,31.8,30.15,SE,138,0.0,17.0,38,0.00,,,0.00,Wunderground v.1.13,2013-05-14 02:05:00,
2013-05-13 22:10:00,56.6,31.9,30.15,ESE,112,0.0,17.0,39,0.00,,,0.00,Wunderground v.1.13,2013-05-14 02:10:00,
2013-05-13 22:20:00,55.4,33.3,30.15,ESE,112,1.0,1.0,43,0.00,,,0.00,Wunderground v.1.13,2013-05-14 02:20:00,
2013-05-13 22:25:00,55.0,32.9,30.15,ESE,112,1.0,1.0,43,0.00,,,0.00,Wunderground v.1.13,2013-05-14 02:25:00,
2013-05-13 22:30:00,54.7,32.6,30.15,ESE,112,0.0,17.0,43,0.00,,,0.00,Wunderground v.1.13,2013-05-14 02:30:00,
2013-05-13 22:35:00,54.4,33.5,30.15,ESE,112,0.0,17.0,45,0.00,,,0.00,Wunderground v.1.13,2013-05-14 02:35:00,
2013-05-13 22:40:00,54.1,33.2,30.15,ESE,112,0.0,17.0,45,0.00,,,0.00,Wunderground v.1.13,2013-05-14 02:40:00,
2013-05-13 22:45:00,53.6,32.8,30.16,ESE,110,0.0,17.0,45,0.00,,,0.00,Wunderground v.1.13,2013-05-14 02:45:00,
2013-05-13 22:50:00,53.5,32.7,30.16,ESE,110,0.0,17.0,45,0.00,,,0.00,Wunderground v.1.13,2013-05-14 02:50:00,
2013-05-13 22:55:00,53.3,32.5,30.16,ESE,110,0.0,17.0,45,0.00,,,0.00,Wunderground v.1.13,2013-05-14 02:55:00,
2013-05-13 23:00:00,53.3,33.0,30.15,ESE,110,0.0,17.0,46,0.00,,,0.00,Wunderground v.1.13,2013-05-14 03:00:00,
2013-05-13 23:05:00,53.1,33.4,30.15,ESE,110,0.0,17.0,47,0.00,,,0.00,Wunderground v.1.13,2013-05-14 03:05:00,
2013-05-13 23:15:00,52.3,33.7,30.15,ESE,107,0.0,17.0,49,0.00,,,0.00,Wunderground v.1.13,2013-05-14 03:15:00,
2013-05-13 23:20:00,51.9,34.3,30.15,ESE,106,0.0,17.0,51,0.00,,,0.00,Wunderground v.1.13,2013-05-14 03:20:00,
2013-05-13 23:25:00,51.4,34.3,30.15,ESE,106,0.0,17.0,52,0.00,,,0.00,Wunderground v.1.13,2013-05-14 03:25:00,
2013-05-13 23:30:00,51.1,34.1,30.15,ESE,104,0.0,17.0,52,0.00,,,0.00,Wunderground v.1.13,2013-05-14 03:30:00,
2013-05-13 23:35:00,51.0,34.0,30.15,ESE,104,0.0,17.0,52,0.00,,,0.00,Wunderground v.1.13,2013-05-14 03:35:00,
2013-05-13 23:45:00,50.5,34.0,30.14,ESE,102,1.0,1.0,53,0.00,,,0.00,Wunderground v.1.13,2013-05-14 03:45:00,
2013-05-13 23:50:00,50.4,33.9,30.14,East,99,1.0,1.0,53,0.00,,,0.00,Wunderground v.1.13,2013-05-14 03:50:00,
2013-05-13 23:55:00,50.2,34.2,30.14,East,97,1.0,1.0,54,0.00,,,0.00,Wunderground v.1.13,2013-05-14 03:55:00,